createdAt,value
2018-04-11T00:00:36.495Z,24.70
2018-04-11T00:01:36.491Z,26.50
2018-04-11T00:02:36.485Z,23.90
2018-04-11T00:03:36.481Z,22.50
2018-04-11T00:04:36.477Z,22.40
2018-04-11T00:05:36.470Z,23.80
2018-04-11T00:06:36.465Z,24.10
2018-04-11T00:07:36.462Z,22.70
2018-04-11T00:08:36.457Z,23.60
2018-04-11T00:09:36.451Z,22.20
2018-04-11T00:10:36.447Z,22.90
2018-04-11T00:11:36.446Z,22.70
2018-04-11T00:12:36.442Z,22.30
2018-04-11T00:13:36.432Z,21.10
2018-04-11T00:14:36.428Z,20.60
2018-04-11T00:15:36.429Z,23.70
2018-04-11T00:16:36.423Z,21.40
2018-04-11T00:17:36.413Z,22.20
2018-04-11T00:18:36.410Z,22.70
2018-04-11T00:19:36.405Z,21.50
2018-04-11T00:20:36.402Z,21.50
2018-04-11T00:21:36.397Z,20.80
2018-04-11T00:22:36.392Z,21.50
2018-04-11T00:23:36.387Z,19.80
2018-04-11T00:24:36.386Z,21.70
2018-04-11T00:25:36.382Z,21.50
2018-04-11T00:26:36.377Z,20.20
2018-04-11T00:27:36.370Z,22.90
2018-04-11T00:28:36.364Z,21.70
2018-04-11T00:29:36.361Z,20.30
2018-04-11T00:30:36.356Z,22.90
2018-04-11T00:31:36.346Z,19.00
2018-04-11T00:32:36.341Z,21.60
2018-04-11T00:33:36.335Z,23.90
2018-04-11T00:34:36.331Z,25.50
2018-04-11T00:35:36.324Z,24.50
2018-04-11T00:36:36.325Z,21.10
2018-04-11T00:37:36.320Z,21.90
2018-04-11T00:38:36.313Z,20.10
2018-04-11T00:39:36.304Z,18.60
2018-04-11T00:40:36.299Z,16.20
2018-04-11T00:41:36.294Z,18.20
2018-04-11T00:42:36.290Z,19.80
2018-04-11T00:43:36.285Z,18.20
2018-04-11T00:44:36.280Z,18.30
2018-04-11T00:45:36.279Z,16.80
2018-04-11T00:46:36.276Z,18.10
2018-04-11T00:47:36.266Z,18.10
2018-04-11T00:48:36.262Z,18.00
2018-04-11T00:49:36.263Z,18.20
2018-04-11T00:50:36.255Z,18.10
2018-04-11T00:51:36.251Z,18.30
2018-04-11T00:52:36.241Z,18.60
2018-04-11T00:53:36.236Z,17.00
2018-04-11T00:54:36.232Z,16.80
2018-04-11T00:55:36.231Z,17.60
2018-04-11T00:56:36.226Z,16.50
2018-04-11T00:57:36.218Z,16.60
2018-04-11T00:58:36.210Z,15.60
2018-04-11T00:59:36.205Z,16.70
2018-04-11T01:00:36.200Z,16.80
2018-04-11T01:01:36.195Z,17.10
2018-04-11T01:02:36.192Z,17.50
2018-04-11T01:03:36.184Z,18.50
2018-04-11T01:04:36.180Z,17.60
2018-04-11T01:05:36.173Z,18.50
2018-04-11T01:06:36.170Z,20.30
2018-04-11T01:07:36.167Z,18.20
2018-04-11T01:08:36.162Z,20.50
2018-04-11T01:09:36.197Z,21.00
2018-04-11T01:10:36.151Z,19.90
2018-04-11T01:11:36.142Z,20.80
2018-04-11T01:12:36.139Z,21.60
2018-04-11T01:13:36.133Z,21.20
2018-04-11T01:14:36.129Z,22.00
2018-04-11T01:15:36.123Z,21.80
2018-04-11T01:16:36.118Z,21.90
2018-04-11T01:17:36.114Z,23.80
2018-04-11T01:18:36.108Z,22.30
2018-04-11T01:19:36.103Z,21.10
2018-04-11T01:20:36.100Z,21.60
2018-04-11T01:21:36.097Z,19.40
2018-04-11T01:22:36.092Z,21.30
2018-04-11T01:23:36.083Z,22.10
2018-04-11T01:24:36.078Z,24.90
2018-04-11T01:25:36.074Z,26.10
2018-04-11T01:26:36.068Z,26.90
2018-04-11T01:27:36.067Z,25.80
2018-04-11T01:28:36.063Z,26.30
2018-04-11T01:29:36.052Z,24.80
2018-04-11T01:30:36.048Z,25.20
2018-04-11T01:31:36.044Z,26.40
2018-04-11T01:32:36.038Z,27.60
2018-04-11T01:33:36.033Z,27.40
2018-04-11T01:34:36.029Z,29.50
2018-04-11T01:35:36.024Z,28.70
2018-04-11T01:36:36.019Z,29.60
2018-04-11T01:37:36.013Z,30.10
2018-04-11T01:38:36.008Z,30.20
2018-04-11T01:39:36.008Z,30.70
2018-04-11T01:40:36.007Z,29.50
2018-04-11T01:41:35.994Z,31.50
2018-04-11T01:42:35.991Z,29.50
2018-04-11T01:43:35.985Z,30.80
2018-04-11T01:44:35.979Z,29.80
2018-04-11T01:45:35.974Z,30.80
2018-04-11T01:46:35.969Z,32.10
2018-04-11T01:47:35.969Z,34.60
2018-04-11T01:48:35.964Z,31.90
2018-04-11T01:49:35.954Z,31.80
2018-04-11T01:50:35.952Z,32.40
2018-04-11T01:51:35.950Z,32.80
2018-04-11T01:52:35.946Z,30.90
2018-04-11T01:53:35.936Z,33.50
2018-04-11T01:54:35.931Z,33.50
2018-04-11T01:55:35.927Z,34.90
2018-04-11T01:56:35.924Z,35.00
2018-04-11T01:57:35.919Z,33.60
2018-04-11T01:58:35.912Z,33.80
2018-04-11T01:59:35.909Z,31.80
2018-04-11T02:00:35.907Z,32.30
2018-04-11T02:01:35.904Z,31.50
2018-04-11T02:02:35.898Z,30.70
2018-04-11T02:03:35.890Z,30.30
2018-04-11T02:04:35.889Z,31.60
2018-04-11T02:05:35.884Z,29.70
2018-04-11T02:06:35.886Z,31.10
2018-04-11T02:07:35.871Z,31.80
2018-04-11T02:08:35.867Z,34.70
2018-04-11T02:09:35.864Z,32.70
2018-04-11T02:10:35.856Z,33.20
2018-04-11T02:11:35.853Z,34.10
2018-04-11T02:12:35.848Z,34.20
2018-04-11T02:13:35.843Z,34.80
2018-04-11T02:14:35.836Z,33.40
2018-04-11T02:15:35.834Z,31.40
2018-04-11T02:16:35.827Z,28.80
2018-04-11T02:17:35.822Z,27.40
2018-04-11T02:18:35.817Z,30.10
2018-04-11T02:19:35.817Z,29.30
2018-04-11T02:20:35.812Z,26.20
2018-04-11T02:21:35.804Z,26.50
2018-04-11T02:22:35.798Z,26.40
2018-04-11T02:23:35.798Z,26.80
2018-04-11T02:24:35.802Z,26.90
2018-04-11T02:25:35.785Z,25.50
2018-04-11T02:26:35.781Z,21.50
2018-04-11T02:27:35.775Z,24.30
2018-04-11T02:28:35.772Z,22.60
2018-04-11T02:29:35.767Z,24.70
2018-04-11T02:30:35.762Z,24.70
2018-04-11T02:31:35.758Z,23.60
2018-04-11T02:32:35.753Z,23.90
2018-04-11T02:33:35.760Z,25.90
2018-04-11T02:34:35.747Z,23.20
2018-04-11T02:35:35.738Z,21.90
2018-04-11T02:36:35.733Z,20.80
2018-04-11T02:37:35.732Z,20.30
2018-04-11T02:38:35.729Z,22.80
2018-04-11T02:39:35.723Z,23.80
2018-04-11T02:40:35.718Z,25.70
2018-04-11T02:41:35.711Z,23.10
2018-04-11T02:42:35.706Z,26.00
2018-04-11T02:43:35.703Z,26.80
2018-04-11T02:44:35.700Z,26.00
2018-04-11T02:45:35.694Z,28.40
2018-04-11T02:46:35.690Z,33.00
2018-04-11T02:47:35.681Z,34.00
2018-04-11T02:48:35.676Z,36.20
2018-04-11T02:49:35.671Z,36.20
2018-04-11T02:50:35.667Z,38.10
2018-04-11T02:51:35.662Z,34.10
2018-04-11T02:52:35.658Z,34.60
2018-04-11T02:53:35.651Z,37.70
2018-04-11T02:54:35.649Z,39.00
2018-04-11T02:55:35.642Z,32.90
2018-04-11T02:56:35.637Z,31.10
2018-04-11T02:57:35.636Z,29.40
2018-04-11T02:58:35.633Z,31.40
2018-04-11T02:59:35.623Z,32.90
2018-04-11T03:00:35.633Z,30.70
2018-04-11T03:01:35.615Z,32.90
2018-04-11T03:02:35.610Z,27.70
2018-04-11T03:03:35.609Z,29.80
2018-04-11T03:04:35.609Z,29.90
2018-04-11T03:05:35.596Z,29.90
2018-04-11T03:06:35.593Z,29.30
2018-04-11T03:07:35.593Z,27.40
2018-04-11T03:08:35.582Z,29.60
2018-04-11T03:09:35.576Z,27.80
2018-04-11T03:10:35.572Z,25.50
2018-04-11T03:11:35.567Z,23.40
2018-04-11T03:12:35.564Z,22.30
2018-04-11T03:13:35.558Z,22.10
2018-04-11T03:14:35.561Z,19.60
2018-04-11T03:15:35.553Z,17.30
2018-04-11T03:16:35.551Z,17.00
2018-04-11T03:17:35.543Z,20.00
2018-04-11T03:18:35.539Z,20.80
2018-04-11T03:19:35.531Z,22.00
2018-04-11T03:20:35.525Z,21.00
2018-04-11T03:21:35.525Z,21.50
2018-04-11T03:22:35.515Z,22.50
2018-04-11T03:23:35.516Z,20.40
2018-04-11T03:24:35.512Z,20.70
2018-04-11T03:25:35.504Z,16.30
2018-04-11T03:26:35.497Z,17.40
2018-04-11T03:27:35.491Z,17.80
2018-04-11T03:28:35.487Z,16.20
2018-04-11T03:29:35.485Z,15.40
2018-04-11T03:30:35.486Z,16.80
2018-04-11T03:31:35.473Z,14.80
2018-04-11T03:32:35.467Z,14.60
2018-04-11T03:33:35.463Z,11.80
2018-04-11T03:34:35.458Z,12.30
2018-04-11T03:35:35.457Z,12.60
2018-04-11T03:36:35.452Z,11.10
2018-04-11T03:37:35.445Z,12.00
2018-04-11T03:38:35.439Z,10.70
2018-04-11T03:39:35.434Z,10.10
2018-04-11T03:40:35.431Z,10.10
2018-04-11T03:41:35.427Z,10.90
2018-04-11T03:42:35.420Z,10.50
2018-04-11T03:43:35.417Z,10.80
2018-04-11T03:44:35.411Z,11.40
2018-04-11T03:45:35.412Z,10.80
2018-04-11T03:46:35.401Z,11.00
2018-04-11T03:47:35.400Z,9.20
2018-04-11T03:48:35.395Z,9.60
2018-04-11T03:49:35.387Z,10.20
2018-04-11T03:50:35.383Z,10.30
2018-04-11T03:51:35.379Z,10.80
2018-04-11T03:52:35.374Z,10.30
2018-04-11T03:53:35.373Z,9.90
2018-04-11T03:54:35.367Z,8.60
2018-04-11T03:55:35.359Z,8.50
2018-04-11T03:56:35.353Z,8.90
2018-04-11T03:57:35.352Z,9.60
2018-04-11T03:58:35.346Z,11.10
2018-04-11T03:59:35.342Z,10.80
2018-04-11T04:00:35.334Z,9.80
2018-04-11T04:01:35.386Z,10.60
2018-04-11T04:02:35.323Z,11.90
2018-04-11T04:03:35.319Z,10.80
2018-04-11T04:04:35.315Z,11.20
2018-04-11T04:05:35.309Z,11.80
2018-04-11T04:06:35.304Z,10.90
2018-04-11T04:07:35.333Z,9.70
2018-04-11T04:08:35.296Z,8.30
2018-04-11T04:09:35.290Z,10.30
2018-04-11T04:10:35.285Z,10.50
2018-04-11T04:11:35.284Z,10.30
2018-04-11T04:12:35.281Z,10.50
2018-04-11T04:13:35.270Z,10.70
2018-04-11T04:14:35.265Z,11.20
2018-04-11T04:15:35.265Z,10.10
2018-04-11T04:16:35.260Z,11.20
2018-04-11T04:17:35.252Z,11.90
2018-04-11T04:18:35.247Z,12.20
2018-04-11T04:19:35.248Z,11.20
2018-04-11T04:20:35.239Z,10.50
2018-04-11T04:21:35.232Z,10.00
2018-04-11T04:22:35.228Z,11.10
2018-04-11T04:23:35.223Z,11.50
2018-04-11T04:24:35.219Z,10.30
2018-04-11T04:25:35.217Z,10.50
2018-04-11T04:26:35.213Z,11.60
2018-04-11T04:27:35.204Z,11.90
2018-04-11T04:28:35.201Z,10.00
2018-04-11T04:29:35.198Z,9.30
2018-04-11T04:30:35.193Z,9.50
2018-04-11T04:31:35.184Z,9.50
2018-04-11T04:32:35.180Z,8.30
2018-04-11T04:33:35.175Z,9.10
2018-04-11T04:34:35.170Z,9.70
2018-04-11T04:35:35.166Z,10.00
2018-04-11T04:36:35.160Z,10.50
2018-04-11T04:37:35.155Z,11.70
2018-04-11T04:38:35.150Z,10.40
2018-04-11T04:39:35.146Z,10.80
2018-04-11T04:40:35.142Z,10.80
2018-04-11T04:41:35.136Z,10.70
2018-04-11T04:42:35.132Z,11.40
2018-04-11T04:43:35.136Z,11.80
2018-04-11T04:44:35.129Z,11.20
2018-04-11T04:45:35.116Z,11.20
2018-04-11T04:46:35.111Z,11.30
2018-04-11T04:47:35.111Z,11.30
2018-04-11T04:48:35.106Z,11.20
2018-04-11T04:49:35.097Z,11.30
2018-04-11T04:50:35.093Z,10.50
2018-04-11T04:51:35.088Z,12.90
2018-04-11T04:52:35.083Z,14.00
2018-04-11T04:53:35.079Z,13.20
2018-04-11T04:54:35.074Z,12.70
2018-04-11T04:55:35.073Z,12.40
2018-04-11T04:56:35.068Z,13.10
2018-04-11T04:57:35.058Z,10.90
2018-04-11T04:58:35.056Z,9.80
2018-04-11T04:59:35.049Z,10.70
2018-04-11T05:00:35.048Z,12.00
2018-04-11T05:01:35.040Z,11.90
2018-04-11T05:02:35.034Z,11.00
2018-04-11T05:03:35.031Z,10.10
2018-04-11T05:04:35.026Z,12.70
2018-04-11T05:05:35.020Z,13.00
2018-04-11T05:06:35.018Z,14.00
2018-04-11T05:07:35.022Z,14.20
2018-04-11T05:08:35.009Z,14.00
2018-04-11T05:09:35.003Z,14.70
2018-04-11T05:10:35.004Z,14.80
2018-04-11T05:11:34.990Z,18.40
2018-04-11T05:12:34.985Z,16.50
2018-04-11T05:13:34.984Z,15.10
2018-04-11T05:14:34.975Z,14.90
2018-04-11T05:15:34.971Z,13.90
2018-04-11T05:16:34.966Z,13.90
2018-04-11T05:17:34.960Z,12.80
2018-04-11T05:18:34.957Z,10.40
2018-04-11T05:19:34.951Z,12.00
2018-04-11T05:20:34.947Z,11.70
2018-04-11T05:21:34.946Z,12.10
2018-04-11T05:22:34.944Z,11.60
2018-04-11T05:23:34.931Z,11.20
2018-04-11T05:24:34.927Z,11.40
2018-04-11T05:25:34.921Z,10.00
2018-04-11T05:26:34.915Z,10.40
2018-04-11T05:27:34.916Z,9.80
2018-04-11T05:28:34.910Z,10.40
2018-04-11T05:29:34.901Z,13.50
2018-04-11T05:30:34.897Z,14.00
2018-04-11T05:31:34.891Z,14.30
2018-04-11T05:32:34.888Z,15.20
2018-04-11T05:33:34.881Z,15.60
2018-04-11T05:34:34.877Z,15.20
2018-04-11T05:35:34.871Z,14.00
2018-04-11T05:36:34.867Z,13.40
2018-04-11T05:37:34.861Z,14.10
2018-04-11T05:38:34.858Z,14.00
2018-04-11T05:39:34.855Z,16.00
2018-04-11T05:40:34.851Z,14.30
2018-04-11T05:41:34.845Z,13.90
2018-04-11T05:42:34.842Z,13.90
2018-04-11T05:43:34.833Z,14.80
2018-04-11T05:44:34.828Z,15.50
2018-04-11T05:45:34.823Z,15.80
2018-04-11T05:46:34.817Z,16.30
2018-04-11T05:47:34.819Z,13.70
2018-04-11T05:48:34.808Z,13.50
2018-04-11T05:49:34.803Z,13.80
2018-04-11T05:50:34.799Z,13.80
2018-04-11T05:51:34.794Z,14.90
2018-04-11T05:52:34.789Z,15.40
2018-04-11T05:53:34.788Z,13.70
2018-04-11T05:54:34.782Z,13.70
2018-04-11T05:55:34.774Z,13.80
2018-04-11T05:56:34.769Z,11.90
2018-04-11T05:57:34.765Z,11.80
2018-04-11T05:58:34.760Z,11.90
2018-04-11T05:59:34.755Z,11.80
2018-04-11T06:00:34.751Z,11.70
2018-04-11T06:01:34.748Z,11.60
2018-04-11T06:02:34.744Z,12.20
2018-04-11T06:03:34.736Z,12.70
2018-04-11T06:04:34.732Z,11.60
2018-04-11T06:05:34.731Z,13.10
2018-04-11T06:06:34.724Z,11.70
2018-04-11T06:07:34.715Z,12.60
2018-04-11T06:08:34.711Z,13.10
2018-04-11T06:09:34.706Z,13.20
2018-04-11T06:10:34.701Z,12.60
2018-04-11T06:11:34.696Z,11.70
2018-04-11T06:12:34.691Z,12.30
2018-04-11T06:13:34.686Z,13.70
2018-04-11T06:14:34.681Z,14.90
2018-04-11T06:15:34.677Z,13.20
2018-04-11T06:16:34.673Z,13.40
2018-04-11T06:17:34.665Z,14.40
2018-04-11T06:18:34.660Z,14.50
2018-04-11T06:19:34.660Z,15.40
2018-04-11T06:20:34.660Z,16.30
2018-04-11T06:21:34.646Z,15.90
2018-04-11T06:22:34.641Z,17.90
2018-04-11T06:23:34.644Z,17.00
2018-04-11T06:24:34.636Z,17.10
2018-04-11T06:25:34.627Z,17.50
2018-04-11T06:26:34.623Z,16.80
2018-04-11T06:27:34.619Z,17.80
2018-04-11T06:28:34.614Z,17.20
2018-04-11T06:29:34.607Z,16.20
2018-04-11T06:30:34.604Z,16.50
2018-04-11T06:31:34.600Z,16.10
2018-04-11T06:32:34.599Z,15.20
2018-04-11T06:33:34.593Z,15.20
2018-04-11T06:34:34.589Z,15.90
2018-04-11T06:35:34.580Z,15.60
2018-04-11T06:36:34.575Z,15.60
2018-04-11T06:37:34.573Z,15.80
2018-04-11T06:38:34.569Z,16.20
2018-04-11T06:39:34.561Z,16.00
2018-04-11T06:40:34.555Z,15.90
2018-04-11T06:41:34.553Z,15.60
2018-04-11T06:42:34.547Z,16.30
2018-04-11T06:43:34.543Z,17.60
2018-04-11T06:44:34.538Z,16.50
2018-04-11T06:45:34.531Z,15.80
2018-04-11T06:46:34.528Z,15.90
2018-04-11T06:47:34.524Z,14.80
2018-04-11T06:48:34.519Z,15.50
2018-04-11T06:49:34.514Z,14.50
2018-04-11T06:50:34.509Z,15.00
2018-04-11T06:51:34.509Z,15.20
2018-04-11T06:52:34.505Z,16.30
2018-04-11T06:53:34.499Z,16.90
2018-04-11T06:54:34.492Z,17.20
2018-04-11T06:55:34.491Z,17.40
2018-04-11T06:56:34.487Z,16.80
2018-04-11T06:57:34.478Z,15.40
2018-04-11T06:58:34.475Z,17.10
2018-04-11T06:59:34.469Z,16.40
2018-04-11T07:00:34.466Z,16.70
2018-04-11T07:01:34.461Z,16.60
2018-04-11T07:02:34.456Z,17.40
2018-04-11T07:03:34.456Z,17.10
2018-04-11T07:04:34.452Z,16.30
2018-04-11T07:05:34.453Z,16.20
2018-04-11T07:06:34.439Z,16.60
2018-04-11T07:07:34.435Z,15.70
2018-04-11T07:08:34.433Z,15.00
2018-04-11T07:09:34.437Z,13.40
2018-04-11T07:10:34.421Z,15.40
2018-04-11T07:11:34.418Z,15.30
2018-04-11T07:12:34.415Z,14.70
2018-04-11T07:13:34.408Z,15.60
2018-04-11T07:14:34.406Z,16.00
2018-04-11T07:15:34.405Z,16.40
2018-04-11T07:16:34.400Z,16.30
2018-04-11T07:17:34.397Z,17.70
2018-04-11T07:18:34.392Z,16.90
2018-04-11T07:19:34.384Z,16.60
2018-04-11T07:20:34.380Z,17.20
2018-04-11T07:21:34.378Z,16.90
2018-04-11T07:22:34.372Z,17.90
2018-04-11T07:23:34.369Z,17.30
2018-04-11T07:24:34.366Z,18.40
2018-04-11T07:25:34.360Z,17.60
2018-04-11T07:26:34.357Z,16.70
2018-04-11T07:27:34.357Z,17.50
2018-04-11T07:28:34.350Z,17.40
2018-04-11T07:29:34.348Z,17.10
2018-04-11T07:30:34.344Z,17.70
2018-04-11T07:31:34.336Z,17.10
2018-04-11T07:32:34.333Z,17.00
2018-04-11T07:33:34.328Z,15.80
2018-04-11T07:34:34.325Z,16.60
2018-04-11T07:35:34.327Z,15.10
2018-04-11T07:36:34.322Z,15.60
2018-04-11T07:37:34.313Z,15.80
2018-04-11T07:38:34.310Z,15.40
2018-04-11T07:39:34.306Z,15.90
2018-04-11T07:40:34.303Z,15.60
2018-04-11T07:41:34.302Z,15.60
2018-04-11T07:42:34.298Z,15.40
2018-04-11T07:43:34.293Z,14.10
2018-04-11T07:44:34.289Z,14.90
2018-04-11T07:45:34.284Z,16.00
2018-04-11T07:46:34.281Z,16.30
2018-04-11T07:47:34.282Z,16.60
2018-04-11T07:48:34.278Z,15.90
2018-04-11T07:49:34.274Z,16.90
2018-04-11T07:50:34.273Z,16.90
2018-04-11T07:51:34.264Z,15.50
2018-04-11T07:52:34.264Z,15.00
2018-04-11T07:53:34.263Z,16.40
2018-04-11T07:54:34.308Z,15.50
2018-04-11T07:55:34.249Z,16.40
2018-04-11T07:56:34.247Z,17.60
2018-04-11T07:57:34.245Z,17.40
2018-04-11T07:58:34.243Z,18.00
2018-04-11T07:59:34.245Z,15.90
2018-04-11T08:00:34.233Z,15.80
2018-04-11T08:01:34.232Z,15.40
2018-04-11T08:02:34.229Z,16.20
2018-04-11T08:03:34.281Z,16.50
2018-04-11T08:04:34.218Z,18.40
2018-04-11T08:05:34.214Z,17.60
2018-04-11T08:06:34.210Z,17.60
2018-04-11T08:07:34.213Z,15.70
2018-04-11T08:08:34.209Z,15.90
2018-04-11T08:09:34.203Z,16.80
2018-04-11T08:10:34.198Z,16.00
2018-04-11T08:11:34.197Z,15.10
2018-04-11T08:12:34.192Z,16.40
2018-04-11T08:13:34.193Z,15.40
2018-04-11T08:14:34.189Z,16.00
2018-04-11T08:15:34.187Z,15.70
2018-04-11T08:16:34.181Z,15.60
2018-04-11T08:17:34.176Z,15.90
2018-04-11T08:18:34.177Z,16.10
2018-04-11T08:19:34.174Z,14.90
2018-04-11T08:20:34.171Z,15.50
2018-04-11T08:21:34.167Z,15.60
2018-04-11T08:22:34.166Z,15.50
2018-04-11T08:23:34.158Z,15.90
2018-04-11T08:24:34.155Z,16.40
2018-04-11T08:25:34.152Z,16.20
2018-04-11T08:26:34.155Z,16.70
2018-04-11T08:27:34.146Z,16.30
2018-04-11T08:28:34.143Z,15.80
2018-04-11T08:29:34.141Z,15.70
2018-04-11T08:30:34.143Z,14.90
2018-04-11T08:31:34.136Z,15.30
2018-04-11T08:32:34.140Z,16.90
2018-04-11T08:33:34.132Z,16.00
2018-04-11T08:34:34.130Z,15.20
2018-04-11T08:35:34.123Z,14.90
2018-04-11T08:36:34.123Z,14.60
2018-04-11T08:37:34.117Z,15.60
2018-04-11T08:38:34.116Z,14.40
2018-04-11T08:39:34.117Z,14.70
2018-04-11T08:40:34.115Z,15.80
2018-04-11T08:41:34.111Z,15.10
2018-04-11T08:42:34.105Z,15.10
2018-04-11T08:43:34.102Z,16.10
2018-04-11T08:44:34.101Z,15.10
2018-04-11T08:45:34.097Z,16.00
2018-04-11T08:46:34.095Z,14.70
2018-04-11T08:47:34.095Z,14.90
2018-04-11T08:48:34.090Z,15.40
2018-04-11T08:49:34.095Z,15.20
2018-04-11T08:50:34.085Z,15.90
2018-04-11T08:51:34.087Z,15.80
2018-04-11T08:52:34.140Z,15.00
2018-04-11T08:53:34.081Z,15.60
2018-04-11T08:54:34.079Z,15.60
2018-04-11T08:55:34.073Z,15.80
2018-04-11T08:56:34.077Z,15.70
2018-04-11T08:57:34.068Z,16.40
2018-04-11T08:58:34.067Z,15.90
2018-04-11T08:59:34.065Z,15.70
2018-04-11T09:00:34.062Z,15.60
2018-04-11T09:01:34.062Z,16.00
2018-04-11T09:02:34.056Z,16.30
2018-04-11T09:03:34.054Z,17.00
2018-04-11T09:04:34.052Z,17.60
2018-04-11T09:05:34.053Z,17.30
2018-04-11T09:06:34.051Z,17.40
2018-04-11T09:07:34.044Z,17.40
2018-04-11T09:08:34.043Z,17.20
2018-04-11T09:09:34.043Z,17.30
2018-04-11T09:10:34.038Z,17.40
2018-04-11T09:11:34.034Z,17.80
2018-04-11T09:12:34.032Z,16.80
2018-04-11T09:13:34.032Z,16.60
2018-04-11T09:14:34.030Z,17.20
2018-04-11T09:15:34.023Z,17.20
2018-04-11T09:16:34.024Z,17.10
2018-04-11T09:17:34.021Z,17.00
2018-04-11T09:18:34.019Z,17.30
2018-04-11T09:19:34.062Z,18.50
2018-04-11T09:20:34.010Z,17.00
2018-04-11T09:21:34.008Z,17.80
2018-04-11T09:22:34.005Z,18.60
2018-04-11T09:23:34.003Z,17.60
2018-04-11T09:24:34.002Z,18.10
2018-04-11T09:25:33.997Z,17.50
2018-04-11T09:26:33.995Z,17.00
2018-04-11T09:27:33.992Z,17.20
2018-04-11T09:28:33.990Z,18.30
2018-04-11T09:29:33.988Z,19.00
2018-04-11T09:30:33.987Z,18.10
2018-04-11T09:31:33.985Z,17.60
2018-04-11T09:32:33.982Z,17.20
2018-04-11T09:33:33.975Z,18.10
2018-04-11T09:34:33.973Z,18.20
2018-04-11T09:35:33.974Z,17.10
2018-04-11T09:36:33.973Z,17.70
2018-04-11T09:37:33.965Z,18.80
2018-04-11T09:38:33.963Z,18.20
2018-04-11T09:39:33.964Z,19.30
2018-04-11T09:40:33.957Z,19.70
2018-04-11T09:41:33.954Z,19.40
2018-04-11T09:42:33.951Z,19.30
2018-04-11T09:43:33.950Z,18.50
2018-04-11T09:44:33.945Z,18.80
2018-04-11T09:45:33.945Z,19.10
2018-04-11T09:46:33.945Z,19.90
2018-04-11T09:47:33.938Z,19.60
2018-04-11T09:48:33.934Z,18.90
2018-04-11T09:49:33.934Z,20.60
2018-04-11T09:50:33.932Z,18.40
2018-04-11T09:51:33.925Z,20.00
2018-04-11T09:52:33.922Z,20.10
2018-04-11T09:53:33.919Z,20.00
2018-04-11T09:54:33.916Z,20.20
2018-04-11T09:55:33.914Z,21.70
2018-04-11T09:56:33.912Z,21.00
2018-04-11T09:57:33.907Z,22.50
2018-04-11T09:58:33.908Z,21.30
2018-04-11T09:59:33.901Z,20.70
2018-04-11T10:00:33.899Z,20.10
2018-04-11T10:01:33.896Z,20.40
2018-04-11T10:02:33.893Z,21.00
2018-04-11T10:03:33.895Z,19.80
2018-04-11T10:04:33.897Z,20.70
2018-04-11T10:05:33.884Z,20.00
2018-04-11T10:06:33.881Z,20.50
2018-04-11T10:07:33.882Z,18.90
2018-04-11T10:08:33.880Z,17.60
2018-04-11T10:09:33.873Z,18.00
2018-04-11T10:10:33.870Z,18.80
2018-04-11T10:11:33.870Z,18.20
2018-04-11T10:12:33.864Z,17.60
2018-04-11T10:13:33.861Z,17.10
2018-04-11T10:14:33.857Z,16.70
2018-04-11T10:15:33.859Z,16.80
2018-04-11T10:16:33.857Z,15.80
2018-04-11T10:17:33.850Z,15.60
2018-04-11T10:18:33.848Z,15.30
2018-04-11T10:19:33.846Z,14.80
2018-04-11T10:20:33.844Z,15.40
2018-04-11T10:21:33.843Z,13.60
2018-04-11T10:22:33.838Z,14.70
2018-04-11T10:23:33.837Z,13.40
2018-04-11T10:24:33.837Z,14.20
2018-04-11T10:25:33.830Z,14.00
2018-04-11T10:26:33.827Z,15.00
2018-04-11T10:27:33.831Z,14.80
2018-04-11T10:28:33.833Z,14.40
2018-04-11T10:29:33.825Z,15.90
2018-04-11T10:30:33.827Z,15.90
2018-04-11T10:31:33.817Z,16.50
2018-04-11T10:32:33.816Z,15.70
2018-04-11T10:33:33.814Z,16.90
2018-04-11T10:34:33.816Z,17.20
2018-04-11T10:35:33.810Z,17.80
2018-04-11T10:36:33.806Z,18.50
2018-04-11T10:37:33.804Z,18.70
2018-04-11T10:38:33.802Z,19.20
2018-04-11T10:39:33.802Z,18.60
2018-04-11T10:40:33.798Z,19.90
2018-04-11T10:41:33.800Z,20.60
2018-04-11T10:42:33.797Z,22.30
2018-04-11T10:43:33.791Z,20.90
2018-04-11T10:44:33.790Z,22.10
2018-04-11T10:45:33.787Z,23.30
2018-04-11T10:46:33.784Z,23.10
2018-04-11T10:47:33.795Z,23.40
2018-04-11T10:48:33.785Z,21.90
2018-04-11T10:49:33.779Z,22.70
2018-04-11T10:50:33.778Z,22.90
2018-04-11T10:51:33.774Z,21.60
2018-04-11T10:52:33.772Z,21.80
2018-04-11T10:53:33.770Z,22.10
2018-04-11T10:54:33.768Z,22.00
2018-04-11T10:55:33.765Z,22.30
2018-04-11T10:56:33.763Z,22.90
2018-04-11T10:57:33.765Z,22.70
2018-04-11T10:58:33.758Z,23.50
2018-04-11T10:59:33.760Z,24.20
2018-04-11T11:00:33.758Z,23.70
2018-04-11T11:01:33.755Z,24.30
2018-04-11T11:02:33.752Z,24.80
2018-04-11T11:03:33.747Z,25.40
2018-04-11T11:04:33.750Z,25.90
2018-04-11T11:05:33.743Z,26.50
2018-04-11T11:06:33.740Z,28.00
2018-04-11T11:07:33.739Z,27.20
2018-04-11T11:08:33.735Z,27.00
2018-04-11T11:09:33.735Z,27.70
2018-04-11T11:10:33.731Z,29.30
2018-04-11T11:11:33.728Z,29.50
2018-04-11T11:12:33.727Z,29.90
2018-04-11T11:13:33.727Z,29.90
2018-04-11T11:14:33.729Z,29.50
2018-04-11T11:15:33.718Z,30.60
2018-04-11T11:16:33.716Z,32.10
2018-04-11T11:17:33.714Z,32.10
2018-04-11T11:18:33.710Z,31.30
2018-04-11T11:19:33.708Z,31.40
2018-04-11T11:20:33.705Z,31.10
2018-04-11T11:21:33.707Z,31.30
2018-04-11T11:22:33.704Z,32.20
2018-04-11T11:23:33.697Z,31.70
2018-04-11T11:24:33.696Z,34.10
2018-04-11T11:25:33.700Z,32.50
2018-04-11T11:26:33.694Z,32.40
2018-04-11T11:27:33.687Z,34.20
2018-04-11T11:28:33.687Z,33.10
2018-04-11T11:29:33.682Z,32.80
2018-04-11T11:30:33.681Z,30.90
2018-04-11T11:31:33.678Z,34.80
2018-04-11T11:32:33.675Z,37.20
2018-04-11T11:33:33.673Z,38.10
2018-04-11T11:34:33.670Z,37.10
2018-04-11T11:35:33.668Z,38.50
2018-04-11T11:36:33.664Z,38.00
2018-04-11T11:37:33.662Z,37.80
2018-04-11T11:38:33.660Z,36.30
2018-04-11T11:39:33.659Z,36.60
2018-04-11T11:40:33.658Z,35.90
2018-04-11T11:41:33.649Z,34.90
2018-04-11T11:42:33.647Z,36.80
2018-04-11T11:43:33.648Z,36.40
2018-04-11T11:44:33.645Z,36.20
2018-04-11T11:45:33.639Z,36.20
2018-04-11T11:46:33.636Z,35.50
2018-04-11T11:47:33.633Z,34.10
2018-04-11T11:48:33.631Z,35.90
2018-04-11T11:49:33.627Z,35.10
2018-04-11T11:50:33.627Z,36.10
2018-04-11T11:51:33.623Z,36.40
2018-04-11T11:52:33.620Z,38.00
2018-04-11T11:53:33.620Z,37.70
2018-04-11T11:54:33.615Z,40.30
2018-04-11T11:55:33.610Z,41.60
2018-04-11T11:56:33.607Z,39.90
2018-04-11T11:57:33.609Z,38.30
2018-04-11T11:58:33.605Z,39.20
2018-04-11T11:59:33.597Z,39.00
2018-04-11T12:00:33.594Z,39.90
2018-04-11T12:01:33.590Z,41.60
2018-04-11T12:02:33.588Z,41.30
2018-04-11T12:03:33.584Z,44.30
2018-04-11T12:04:33.583Z,44.40
2018-04-11T12:05:33.578Z,46.30
2018-04-11T12:06:33.575Z,46.70
2018-04-11T12:07:33.571Z,46.20
2018-04-11T12:08:33.570Z,47.40
2018-04-11T12:09:33.566Z,47.90
2018-04-11T12:10:33.560Z,47.20
2018-04-11T12:11:33.561Z,49.70
2018-04-11T12:12:33.558Z,50.70
2018-04-11T12:13:33.549Z,49.50
2018-04-11T12:14:33.547Z,51.00
2018-04-11T12:15:33.550Z,53.60
2018-04-11T12:16:33.545Z,50.70
2018-04-11T12:17:33.537Z,54.10
2018-04-11T12:18:33.533Z,55.60
2018-04-11T12:19:33.531Z,54.30
2018-04-11T12:20:33.528Z,51.00
2018-04-11T12:21:33.523Z,49.50
2018-04-11T12:22:33.521Z,50.40
2018-04-11T12:23:33.521Z,49.90
2018-04-11T12:24:33.517Z,49.20
2018-04-11T12:25:33.510Z,50.50
2018-04-11T12:26:33.510Z,50.10
2018-04-11T12:27:33.507Z,51.60
2018-04-11T12:28:33.503Z,49.80
2018-04-11T12:29:33.532Z,50.60
2018-04-11T12:30:33.496Z,50.80
2018-04-11T12:31:33.493Z,50.50
2018-04-11T12:32:33.491Z,49.70
2018-04-11T12:33:33.486Z,49.20
2018-04-11T12:34:33.484Z,49.80
2018-04-11T12:35:33.490Z,49.50
2018-04-11T12:36:33.488Z,47.30
2018-04-11T12:37:33.479Z,46.00
2018-04-11T12:38:33.477Z,47.90
2018-04-11T12:39:33.470Z,48.40
2018-04-11T12:40:33.467Z,46.00
2018-04-11T12:41:33.464Z,49.00
2018-04-11T12:42:33.462Z,49.60
2018-04-11T12:43:33.460Z,49.10
2018-04-11T12:44:33.457Z,49.80
2018-04-11T12:45:33.454Z,47.10
2018-04-11T12:46:33.453Z,45.90
2018-04-11T12:47:33.450Z,47.80
2018-04-11T12:48:33.449Z,52.40
2018-04-11T12:49:33.448Z,51.10
2018-04-11T12:50:33.447Z,51.30
2018-04-11T12:51:33.441Z,51.40
2018-04-11T12:52:33.438Z,48.70
2018-04-11T12:53:33.434Z,50.20